ANAU/INU METAR and TAF weather

Enter ICAO airport designator
Station Type Date Time Source
ANAU METAR 2007/12/09 02:00 UTC NOAA

ANAU 090200Z 12010KT 30KM FEW020 SCT050 31/27 Q1006


Station Type Date Time Source
ANAU Decoded METAR 2007/12/09 02:00 UTC NOAA

Error!

Station Type Date Time Source
ANAU TAF UTC NOAA

Error!


Example: see airport list